หน้าหลัก
METAR-TAF:

METAR-TAF

ท่าอากาศยาน :

กุสโก, เปรู

ละติจูด: 13-33S, ลองจิจูด: 071-59W, ความสูง: 3248 ม.

การสังเกตสภาพอากาศปัจจุบัน

รายงานได้ทำขึ้นเมื่อ 58 นาทีที่แล้ว ณ เวลา 06:00 UTC
ลม 1 นอตจากทิศทางซึ่งแปรผันได้
อุณหภูมิ 6°C
ความชื้น 75%
ความกดอากาศ 1033 hPa
ทัศนวิสัย 10 กม. หรือมากกว่า

METAR: SPZO 130600Z VRB01KT 9999 NSC 06/02 Q1033 RMK BIRD HAZARD RWY 10/28 PP000

เวลา: 01:58 (06:58 UTC)

การพยากรณ์

รายงานได้ทำขึ้นเมื่อ 3 ชั่วโมงและ 8 นาทีที่แล้ว ณ เวลา 03:50 UTC
การพยากรณ์มีผลตั้งแต่วันที่ 13 ณ เวลา 06 UTC จนถึงวันที่ 14 ณ เวลา 06 UTC
ลม 2 นอตจากทิศทางซึ่งแปรผันได้
ทัศนวิสัย 10 กม. หรือมากกว่า
มีเมฆน้อยที่ความสูง 5000 ฟุต
ชั่วคราว
ตั้งแต่วันที่ 13 ณ เวลา 18 UTC จนถึงวันที่ 13 ณ เวลา 22 UTC
ลม 12 นอตจากตะวันตก/ตะวันตกเฉียงเหนือ

TAF: SPZO 130350Z 1306/1406 VRB02KT 9999 FEW050 TX23/1319Z TN02/1311Z TEMPO 1318/1322 29012KT

สังเกตการณ์สภาพอากาศและพยากรณ์อากาศของสนามบินมากกว่า 4000 แห่ง (รายงาน METAR และ TAF).

สถานีที่ดูได้จะแสดงไว้ด้วยจุดสีเหลืองและสีแดงบนแผนที่.

เลื่อนเมาส์ไปเหนือจุดเพื่อดูชื่อสถานี.

แล้วคลิกเพื่อดูสังเกตการณ์และการพยากรณ์สภาพอากาศ.

ในการเปลี่ยนแผนที่: คลิกที่ปุ่มสีเขียวที่มีกากบาทสีดำเพื่อซูมเข้า; ที่ปุ่มสีเขียวที่มีขีดเพื่อซูมออก; หรือที่ลูกศรสีเขียวเพื่อไปยังแผนที่ที่อยู่ติดกัน.


METAR-TAF: